Milford, KS

1:15 PM CDT on March 27, 2015 (GMT -0500)
KKSWAKEF2 | | Change Station
CLOSE
Current Station
Personal Weather Station
Location: Wakefield, KS
Elevation: 1272 ft
Nearby Weather Stations

Elev 1272 ft 39.22 °N, 97.02 °W | Updated 8 seconds ago

Clear
Clear
44.4 °F
Feels Like 42 °F
N
4.2
Wind Variable Wind from NE
Gusts 4.4 mph

Today
High -- | Low -- °F
--% Chance of Precip.
Yesterday
High -- | Low -- °F
Precip. -- in
7:20 AM 7:46 PM
First Quarter, 54% visible
Pressure 30.28 in
Visibility 10.0 miles
Clouds Scattered Clouds 11000 ft
Windchill 42 °F
Dew Point 27 °F
Humidity 50%
Rainfall 0.00 in
Snow Depth Not available.
UV 7 out of 12
Pollen 6.80 out of 12
Air Quality Not available.
Flu Activity Not available.
METAR KFRI 271758Z AUTO VRB04KT 10SM SCT110 06/M05 A3026 RMK AO2 SLP252 T00601051 10060 20009 58012

More Conditions Fewer Conditions

Pressure 30.28 in
Visibility 10.0 miles
Clouds Scattered Clouds 11000 ft
Windchill 42 °F
Dew Point 27 °F
Humidity 50%
Rainfall 0.00 in
Snow Depth Not available.
UV 7 out of 12
Pollen 6.80 out of 12
Air Quality Not available.
Flu Activity Not available.
METAR KFRI 271758Z AUTO VRB04KT 10SM SCT110 06/M05 A3026 RMK AO2 SLP252 T00601051 10060 20009 58012

More Conditions Fewer Conditions

10-Day Weather Forecast

Almanac

Astronomy

Mar. 27, 2015 Rise Set
Actual Time
Civil Twilight
Nautical Twilight
Astronomical Twilight
Moon
Length of Visible Light
Length of Day
Tomorrow will be .
, % of the Moon is Illuminated

Today's Extremes

State Highs State Lows

Community

WunderPhotos

Upload Photos

1,808,773 photos uploaded!

WunderBlogs® & News

Nearby

Air Quality

  Air Quality AQ Index Pollutant
Not available.

Snow Depth

Station Depth Elevation

Earthquake Activity

City Distance Mag. Time & Date
Minimum magnitude displayed is 2.5.

Coastal Water Temperatures

Place Temperature

Stations

Nearby Weather Stations

Station Location Temp. Windchill Dew Point Humidity Wind Precip. Elev Updated Type